sensor_id;sensor_type;location;lat;lon;timestamp;P1;durP1;ratioP1;P2;durP2;ratioP2
10605;SDS011;5350;42.698;23.148;2023-10-09T00:01:00;3.55;;;1.40;;
10605;SDS011;5350;42.698;23.148;2023-10-09T00:03:29;4.22;;;1.30;;
10605;SDS011;5350;42.698;23.148;2023-10-09T00:05:58;6.40;;;1.40;;
10605;SDS011;5350;42.698;23.148;2023-10-09T00:08:27;5.03;;;1.45;;
10605;SDS011;5350;42.698;23.148;2023-10-09T00:10:57;5.43;;;1.35;;
10605;SDS011;5350;42.698;23.148;2023-10-09T00:13:38;3.85;;;1.30;;
10605;SDS011;5350;42.698;23.148;2023-10-09T00:16:14;7.22;;;1.38;;
10605;SDS011;5350;42.698;23.148;2023-10-09T00:18:48;4.45;;;1.10;;
10605;SDS011;5350;42.698;23.148;2023-10-09T00:21:16;6.20;;;1.27;;
10605;SDS011;5350;42.698;23.148;2023-10-09T00:23:45;1.55;;;1.08;;
10605;SDS011;5350;42.698;23.148;2023-10-09T00:26:18;5.88;;;1.38;;
10605;SDS011;5350;42.698;23.148;2023-10-09T00:28:47;4.03;;;1.02;;
10605;SDS011;5350;42.698;23.148;2023-10-09T00:31:16;2.63;;;1.00;;
10605;SDS011;5350;42.698;23.148;2023-10-09T00:33:52;1.70;;;0.88;;
10605;SDS011;5350;42.698;23.148;2023-10-09T00:36:21;2.90;;;1.00;;
10605;SDS011;5350;42.698;23.148;2023-10-09T00:38:53;6.10;;;1.10;;
10605;SDS011;5350;42.698;23.148;2023-10-09T00:41:22;4.93;;;0.90;;
10605;SDS011;5350;42.698;23.148;2023-10-09T00:43:51;2.35;;;1.13;;
10605;SDS011;5350;42.698;23.148;2023-10-09T00:46:19;4.85;;;0.90;;
10605;SDS011;5350;42.698;23.148;2023-10-09T00:48:51;2.97;;;1.10;;
10605;SDS011;5350;42.698;23.148;2023-10-09T00:51:22;4.03;;;0.90;;
10605;SDS011;5350;42.698;23.148;2023-10-09T00:53:50;3.30;;;0.80;;
10605;SDS011;5350;42.698;23.148;2023-10-09T00:56:19;2.78;;;1.00;;
10605;SDS011;5350;42.698;23.148;2023-10-09T00:58:54;6.43;;;1.00;;
10605;SDS011;5350;42.698;23.148;2023-10-09T01:01:25;2.97;;;0.90;;
10605;SDS011;5350;42.698;23.148;2023-10-09T01:04:00;3.78;;;0.90;;
10605;SDS011;5350;42.698;23.148;2023-10-09T01:06:38;3.08;;;0.93;;
10605;SDS011;5350;42.698;23.148;2023-10-09T01:09:10;3.42;;;1.00;;
10605;SDS011;5350;42.698;23.148;2023-10-09T01:11:39;3.75;;;0.90;;
10605;SDS011;5350;42.698;23.148;2023-10-09T01:14:14;0.88;;;0.55;;
10605;SDS011;5350;42.698;23.148;2023-10-09T01:16:41;3.13;;;0.85;;
10605;SDS011;5350;42.698;23.148;2023-10-09T01:19:08;6.75;;;1.00;;
10605;SDS011;5350;42.698;23.148;2023-10-09T01:21:50;1.75;;;0.68;;
10605;SDS011;5350;42.698;23.148;2023-10-09T01:24:18;3.15;;;1.02;;
10605;SDS011;5350;42.698;23.148;2023-10-09T01:26:47;2.63;;;1.00;;
10605;SDS011;5350;42.698;23.148;2023-10-09T01:29:15;3.13;;;0.90;;
10605;SDS011;5350;42.698;23.148;2023-10-09T01:31:44;3.55;;;0.88;;
10605;SDS011;5350;42.698;23.148;2023-10-09T01:34:20;0.93;;;0.80;;
10605;SDS011;5350;42.698;23.148;2023-10-09T01:36:49;1.77;;;0.93;;
10605;SDS011;5350;42.698;23.148;2023-10-09T01:39:22;3.28;;;1.10;;
10605;SDS011;5350;42.698;23.148;2023-10-09T01:41:51;2.00;;;1.00;;
10605;SDS011;5350;42.698;23.148;2023-10-09T01:44:24;2.97;;;0.82;;
10605;SDS011;5350;42.698;23.148;2023-10-09T01:46:55;2.20;;;0.80;;
10605;SDS011;5350;42.698;23.148;2023-10-09T01:49:23;5.32;;;1.10;;
10605;SDS011;5350;42.698;23.148;2023-10-09T01:51:56;2.47;;;0.80;;
10605;SDS011;5350;42.698;23.148;2023-10-09T01:54:29;1.67;;;0.80;;
10605;SDS011;5350;42.698;23.148;2023-10-09T01:57:06;3.45;;;0.70;;
10605;SDS011;5350;42.698;23.148;2023-10-09T01:59:37;1.33;;;0.85;;
10605;SDS011;5350;42.698;23.148;2023-10-09T02:02:09;2.05;;;0.70;;
10605;SDS011;5350;42.698;23.148;2023-10-09T02:04:50;4.55;;;0.80;;
10605;SDS011;5350;42.698;23.148;2023-10-09T02:07:17;1.45;;;0.55;;
10605;SDS011;5350;42.698;23.148;2023-10-09T02:09:49;4.35;;;0.70;;
10605;SDS011;5350;42.698;23.148;2023-10-09T02:12:16;3.75;;;0.90;;
10605;SDS011;5350;42.698;23.148;2023-10-09T02:14:43;2.47;;;0.68;;
10605;SDS011;5350;42.698;23.148;2023-10-09T02:17:09;3.13;;;0.70;;
10605;SDS011;5350;42.698;23.148;2023-10-09T02:19:43;2.83;;;0.85;;
10605;SDS011;5350;42.698;23.148;2023-10-09T02:22:13;0.60;;;0.60;;
10605;SDS011;5350;42.698;23.148;2023-10-09T02:24:41;1.95;;;0.80;;
10605;SDS011;5350;42.698;23.148;2023-10-09T02:27:18;1.50;;;0.80;;
10605;SDS011;5350;42.698;23.148;2023-10-09T02:30:03;3.60;;;0.95;;
10605;SDS011;5350;42.698;23.148;2023-10-09T02:32:40;2.97;;;0.80;;
10605;SDS011;5350;42.698;23.148;2023-10-09T02:35:08;2.23;;;0.70;;
10605;SDS011;5350;42.698;23.148;2023-10-09T02:37:46;2.50;;;0.90;;
10605;SDS011;5350;42.698;23.148;2023-10-09T02:40:13;0.83;;;0.63;;
10605;SDS011;5350;42.698;23.148;2023-10-09T02:42:50;0.60;;;0.60;;
10605;SDS011;5350;42.698;23.148;2023-10-09T02:45:17;3.47;;;0.60;;
10605;SDS011;5350;42.698;23.148;2023-10-09T02:47:44;1.63;;;0.60;;
10605;SDS011;5350;42.698;23.148;2023-10-09T02:50:14;3.37;;;0.70;;
10605;SDS011;5350;42.698;23.148;2023-10-09T02:52:47;2.20;;;0.70;;
10605;SDS011;5350;42.698;23.148;2023-10-09T02:55:18;0.50;;;0.33;;
10605;SDS011;5350;42.698;23.148;2023-10-09T02:57:51;4.63;;;1.10;;
10605;SDS011;5350;42.698;23.148;2023-10-09T03:00:29;2.67;;;0.70;;
10605;SDS011;5350;42.698;23.148;2023-10-09T03:02:57;4.00;;;0.80;;
10605;SDS011;5350;42.698;23.148;2023-10-09T03:05:24;2.00;;;0.77;;
10605;SDS011;5350;42.698;23.148;2023-10-09T03:07:52;2.03;;;0.63;;
10605;SDS011;5350;42.698;23.148;2023-10-09T03:10:19;2.10;;;0.40;;
10605;SDS011;5350;42.698;23.148;2023-10-09T03:12:49;2.27;;;0.80;;
10605;SDS011;5350;42.698;23.148;2023-10-09T03:15:18;2.88;;;0.40;;
10605;SDS011;5350;42.698;23.148;2023-10-09T03:17:45;1.77;;;0.70;;
10605;SDS011;5350;42.698;23.148;2023-10-09T03:20:13;2.00;;;0.43;;
10605;SDS011;5350;42.698;23.148;2023-10-09T03:22:42;3.80;;;0.80;;
10605;SDS011;5350;42.698;23.148;2023-10-09T03:25:10;2.10;;;0.60;;
10605;SDS011;5350;42.698;23.148;2023-10-09T03:27:39;1.00;;;0.50;;
10605;SDS011;5350;42.698;23.148;2023-10-09T03:30:12;2.07;;;0.60;;
10605;SDS011;5350;42.698;23.148;2023-10-09T03:32:47;2.13;;;0.40;;
10605;SDS011;5350;42.698;23.148;2023-10-09T03:35:16;1.13;;;0.40;;
10605;SDS011;5350;42.698;23.148;2023-10-09T03:37:49;1.43;;;0.40;;
10605;SDS011;5350;42.698;23.148;2023-10-09T03:40:18;2.87;;;0.80;;
10605;SDS011;5350;42.698;23.148;2023-10-09T03:42:45;0.23;;;0.20;;
10605;SDS011;5350;42.698;23.148;2023-10-09T03:45:14;1.30;;;0.40;;
10605;SDS011;5350;42.698;23.148;2023-10-09T03:47:53;0.47;;;0.40;;
10605;SDS011;5350;42.698;23.148;2023-10-09T03:50:27;3.23;;;0.50;;
10605;SDS011;5350;42.698;23.148;2023-10-09T03:53:01;2.30;;;0.47;;
10605;SDS011;5350;42.698;23.148;2023-10-09T03:55:31;1.13;;;0.40;;
10605;SDS011;5350;42.698;23.148;2023-10-09T03:57:58;1.47;;;0.50;;
10605;SDS011;5350;42.698;23.148;2023-10-09T04:00:28;1.07;;;0.40;;
10605;SDS011;5350;42.698;23.148;2023-10-09T04:02:56;1.70;;;0.30;;
10605;SDS011;5350;42.698;23.148;2023-10-09T04:05:24;0.43;;;0.30;;
10605;SDS011;5350;42.698;23.148;2023-10-09T04:07:51;0.93;;;0.33;;
10605;SDS011;5350;42.698;23.148;2023-10-09T04:10:19;0.87;;;0.50;;
10605;SDS011;5350;42.698;23.148;2023-10-09T04:13:16;1.30;;;0.27;;
10605;SDS011;5350;42.698;23.148;2023-10-09T04:15:49;1.80;;;0.30;;
10605;SDS011;5350;42.698;23.148;2023-10-09T04:18:18;1.13;;;0.40;;
10605;SDS011;5350;42.698;23.148;2023-10-09T04:20:53;0.73;;;0.50;;
10605;SDS011;5350;42.698;23.148;2023-10-09T04:23:38;2.83;;;0.50;;
10605;SDS011;5350;42.698;23.148;2023-10-09T04:26:25;3.47;;;0.80;;
10605;SDS011;5350;42.698;23.148;2023-10-09T04:28:51;0.63;;;0.40;;
10605;SDS011;5350;42.698;23.148;2023-10-09T04:31:20;1.53;;;0.90;;
10605;SDS011;5350;42.698;23.148;2023-10-09T04:33:57;0.87;;;0.30;;
10605;SDS011;5350;42.698;23.148;2023-10-09T04:36:48;4.53;;;0.40;;
10605;SDS011;5350;42.698;23.148;2023-10-09T04:39:16;0.60;;;0.27;;
10605;SDS011;5350;42.698;23.148;2023-10-09T04:41:57;4.77;;;0.70;;
10605;SDS011;5350;42.698;23.148;2023-10-09T04:44:44;1.07;;;0.30;;
10605;SDS011;5350;42.698;23.148;2023-10-09T04:47:44;0.70;;;0.30;;
10605;SDS011;5350;42.698;23.148;2023-10-09T04:50:31;0.63;;;0.37;;
10605;SDS011;5350;42.698;23.148;2023-10-09T04:53:30;0.20;;;0.20;;
10605;SDS011;5350;42.698;23.148;2023-10-09T04:56:04;0.33;;;0.30;;
10605;SDS011;5350;42.698;23.148;2023-10-09T04:58:40;0.60;;;0.40;;
10605;SDS011;5350;42.698;23.148;2023-10-09T05:01:07;0.50;;;0.40;;
10605;SDS011;5350;42.698;23.148;2023-10-09T05:03:43;1.60;;;0.40;;
10605;SDS011;5350;42.698;23.148;2023-10-09T05:06:10;2.30;;;0.47;;
10605;SDS011;5350;42.698;23.148;2023-10-09T05:08:46;0.80;;;0.50;;
10605;SDS011;5350;42.698;23.148;2023-10-09T05:11:14;5.23;;;0.83;;
10605;SDS011;5350;42.698;23.148;2023-10-09T05:13:58;0.50;;;0.30;;
10605;SDS011;5350;42.698;23.148;2023-10-09T05:16:37;1.30;;;0.63;;
10605;SDS011;5350;42.698;23.148;2023-10-09T05:19:15;16.33;;;0.73;;
10605;SDS011;5350;42.698;23.148;2023-10-09T05:21:58;1.07;;;0.30;;
10605;SDS011;5350;42.698;23.148;2023-10-09T05:24:30;4.27;;;0.40;;
10605;SDS011;5350;42.698;23.148;2023-10-09T05:27:09;4.43;;;0.60;;
10605;SDS011;5350;42.698;23.148;2023-10-09T05:29:44;0.73;;;0.50;;
10605;SDS011;5350;42.698;23.148;2023-10-09T05:32:38;0.63;;;0.37;;
10605;SDS011;5350;42.698;23.148;2023-10-09T05:35:14;0.40;;;0.40;;
10605;SDS011;5350;42.698;23.148;2023-10-09T05:37:41;0.30;;;0.30;;
10605;SDS011;5350;42.698;23.148;2023-10-09T05:40:11;0.50;;;0.20;;
10605;SDS011;5350;42.698;23.148;2023-10-09T05:42:56;0.47;;;0.40;;
10605;SDS011;5350;42.698;23.148;2023-10-09T05:45:25;0.87;;;0.30;;
10605;SDS011;5350;42.698;23.148;2023-10-09T05:48:18;1.23;;;0.30;;
10605;SDS011;5350;42.698;23.148;2023-10-09T05:51:26;1.53;;;0.40;;
10605;SDS011;5350;42.698;23.148;2023-10-09T05:54:08;0.83;;;0.40;;
10605;SDS011;5350;42.698;23.148;2023-10-09T05:56:37;0.57;;;0.40;;
10605;SDS011;5350;42.698;23.148;2023-10-09T05:59:21;6.40;;;0.60;;
10605;SDS011;5350;42.698;23.148;2023-10-09T06:02:04;1.10;;;0.60;;
10605;SDS011;5350;42.698;23.148;2023-10-09T06:05:13;0.57;;;0.30;;
10605;SDS011;5350;42.698;23.148;2023-10-09T06:07:55;0.47;;;0.27;;
10605;SDS011;5350;42.698;23.148;2023-10-09T06:10:32;0.97;;;0.43;;
10605;SDS011;5350;42.698;23.148;2023-10-09T06:13:06;3.50;;;0.37;;
10605;SDS011;5350;42.698;23.148;2023-10-09T06:15:53;1.20;;;0.30;;
10605;SDS011;5350;42.698;23.148;2023-10-09T06:18:44;0.67;;;0.40;;
10605;SDS011;5350;42.698;23.148;2023-10-09T06:21:19;0.40;;;0.27;;
10605;SDS011;5350;42.698;23.148;2023-10-09T06:24:05;22.40;;;2.70;;
10605;SDS011;5350;42.698;23.148;2023-10-09T06:26:40;0.40;;;0.40;;
10605;SDS011;5350;42.698;23.148;2023-10-09T06:29:16;5.03;;;0.53;;
10605;SDS011;5350;42.698;23.148;2023-10-09T06:31:59;2.30;;;0.60;;
10605;SDS011;5350;42.698;23.148;2023-10-09T06:34:42;0.40;;;0.40;;
10605;SDS011;5350;42.698;23.148;2023-10-09T06:37:10;0.67;;;0.40;;
10605;SDS011;5350;42.698;23.148;2023-10-09T06:40:01;2.07;;;0.80;;
10605;SDS011;5350;42.698;23.148;2023-10-09T06:42:56;0.50;;;0.40;;
10605;SDS011;5350;42.698;23.148;2023-10-09T06:45:23;0.65;;;0.50;;
10605;SDS011;5350;42.698;23.148;2023-10-09T06:48:08;1.17;;;0.57;;
10605;SDS011;5350;42.698;23.148;2023-10-09T06:50:55;0.93;;;0.47;;
10605;SDS011;5350;42.698;23.148;2023-10-09T06:53:23;0.77;;;0.60;;
10605;SDS011;5350;42.698;23.148;2023-10-09T06:55:54;0.50;;;0.40;;
10605;SDS011;5350;42.698;23.148;2023-10-09T06:58:30;2.17;;;0.60;;
10605;SDS011;5350;42.698;23.148;2023-10-09T07:01:07;0.53;;;0.40;;
10605;SDS011;5350;42.698;23.148;2023-10-09T07:03:50;0.68;;;0.38;;
10605;SDS011;5350;42.698;23.148;2023-10-09T07:06:25;2.20;;;0.32;;
10605;SDS011;5350;42.698;23.148;2023-10-09T07:09:13;1.08;;;0.50;;
10605;SDS011;5350;42.698;23.148;2023-10-09T07:11:47;0.60;;;0.38;;
10605;SDS011;5350;42.698;23.148;2023-10-09T07:14:24;0.88;;;0.40;;
10605;SDS011;5350;42.698;23.148;2023-10-09T07:17:18;1.20;;;0.82;;
10605;SDS011;5350;42.698;23.148;2023-10-09T07:19:47;0.40;;;0.40;;
10605;SDS011;5350;42.698;23.148;2023-10-09T07:22:34;2.75;;;0.90;;
10605;SDS011;5350;42.698;23.148;2023-10-09T07:25:17;0.57;;;0.40;;
10605;SDS011;5350;42.698;23.148;2023-10-09T07:27:59;0.68;;;0.30;;
10605;SDS011;5350;42.698;23.148;2023-10-09T07:30:28;0.47;;;0.47;;
10605;SDS011;5350;42.698;23.148;2023-10-09T07:33:04;0.60;;;0.30;;
10605;SDS011;5350;42.698;23.148;2023-10-09T07:35:42;0.65;;;0.40;;
10605;SDS011;5350;42.698;23.148;2023-10-09T07:38:23;0.43;;;0.38;;
10605;SDS011;5350;42.698;23.148;2023-10-09T07:40:54;0.40;;;0.40;;
10605;SDS011;5350;42.698;23.148;2023-10-09T07:43:27;12.60;;;1.10;;
10605;SDS011;5350;42.698;23.148;2023-10-09T07:46:01;0.73;;;0.50;;
10605;SDS011;5350;42.698;23.148;2023-10-09T07:48:58;0.55;;;0.35;;
10605;SDS011;5350;42.698;23.148;2023-10-09T07:51:34;0.50;;;0.28;;
10605;SDS011;5350;42.698;23.148;2023-10-09T07:54:01;0.82;;;0.30;;
10605;SDS011;5350;42.698;23.148;2023-10-09T07:56:33;2.13;;;0.70;;
10605;SDS011;5350;42.698;23.148;2023-10-09T07:59:05;2.78;;;0.60;;
10605;SDS011;5350;42.698;23.148;2023-10-09T08:01:36;1.15;;;0.50;;
10605;SDS011;5350;42.698;23.148;2023-10-09T08:04:04;0.45;;;0.40;;
10605;SDS011;5350;42.698;23.148;2023-10-09T08:06:35;0.55;;;0.25;;
10605;SDS011;5350;42.698;23.148;2023-10-09T08:09:07;1.23;;;0.40;;
10605;SDS011;5350;42.698;23.148;2023-10-09T08:11:50;1.88;;;0.52;;
10605;SDS011;5350;42.698;23.148;2023-10-09T08:14:40;3.80;;;0.40;;
10605;SDS011;5350;42.698;23.148;2023-10-09T08:17:11;0.70;;;0.32;;
10605;SDS011;5350;42.698;23.148;2023-10-09T08:19:39;1.05;;;0.50;;
10605;SDS011;5350;42.698;23.148;2023-10-09T08:22:20;1.15;;;0.47;;
10605;SDS011;5350;42.698;23.148;2023-10-09T08:25:05;0.80;;;0.40;;
10605;SDS011;5350;42.698;23.148;2023-10-09T08:27:33;0.80;;;0.30;;
10605;SDS011;5350;42.698;23.148;2023-10-09T08:30:21;2.25;;;0.30;;
10605;SDS011;5350;42.698;23.148;2023-10-09T08:33:05;1.23;;;0.40;;
10605;SDS011;5350;42.698;23.148;2023-10-09T08:35:53;0.50;;;0.30;;
10605;SDS011;5350;42.698;23.148;2023-10-09T08:38:26;3.40;;;0.60;;
10605;SDS011;5350;42.698;23.148;2023-10-09T08:41:05;0.40;;;0.38;;
10605;SDS011;5350;42.698;23.148;2023-10-09T08:43:42;4.05;;;0.47;;
10605;SDS011;5350;42.698;23.148;2023-10-09T08:46:22;2.13;;;0.47;;
10605;SDS011;5350;42.698;23.148;2023-10-09T08:48:51;0.70;;;0.40;;
10605;SDS011;5350;42.698;23.148;2023-10-09T08:51:20;0.43;;;0.30;;
10605;SDS011;5350;42.698;23.148;2023-10-09T08:53:48;1.58;;;0.40;;
10605;SDS011;5350;42.698;23.148;2023-10-09T08:56:16;0.73;;;0.30;;
10605;SDS011;5350;42.698;23.148;2023-10-09T08:58:47;0.93;;;0.70;;
10605;SDS011;5350;42.698;23.148;2023-10-09T09:01:16;1.13;;;0.40;;
10605;SDS011;5350;42.698;23.148;2023-10-09T09:03:47;0.93;;;0.30;;
10605;SDS011;5350;42.698;23.148;2023-10-09T09:06:17;0.63;;;0.40;;
10605;SDS011;5350;42.698;23.148;2023-10-09T09:08:45;0.35;;;0.35;;
10605;SDS011;5350;42.698;23.148;2023-10-09T09:11:13;6.00;;;0.63;;
10605;SDS011;5350;42.698;23.148;2023-10-09T09:13:43;1.35;;;0.40;;
10605;SDS011;5350;42.698;23.148;2023-10-09T09:16:15;0.65;;;0.40;;
10605;SDS011;5350;42.698;23.148;2023-10-09T09:18:54;0.63;;;0.40;;
10605;SDS011;5350;42.698;23.148;2023-10-09T09:21:30;2.15;;;0.73;;
10605;SDS011;5350;42.698;23.148;2023-10-09T09:24:03;1.88;;;0.40;;
10605;SDS011;5350;42.698;23.148;2023-10-09T09:26:41;1.52;;;0.50;;
10605;SDS011;5350;42.698;23.148;2023-10-09T09:29:11;0.73;;;0.50;;
10605;SDS011;5350;42.698;23.148;2023-10-09T09:31:51;1.05;;;0.50;;
10605;SDS011;5350;42.698;23.148;2023-10-09T09:34:20;0.60;;;0.40;;
10605;SDS011;5350;42.698;23.148;2023-10-09T09:36:51;1.02;;;0.70;;
10605;SDS011;5350;42.698;23.148;2023-10-09T09:39:23;0.50;;;0.50;;
10605;SDS011;5350;42.698;23.148;2023-10-09T09:41:55;0.93;;;0.55;;
10605;SDS011;5350;42.698;23.148;2023-10-09T09:44:30;5.10;;;0.85;;
10605;SDS011;5350;42.698;23.148;2023-10-09T09:46:59;0.50;;;0.30;;
10605;SDS011;5350;42.698;23.148;2023-10-09T09:49:28;0.90;;;0.40;;
10605;SDS011;5350;42.698;23.148;2023-10-09T09:52:00;0.73;;;0.40;;
10605;SDS011;5350;42.698;23.148;2023-10-09T09:54:35;3.22;;;0.40;;
10605;SDS011;5350;42.698;23.148;2023-10-09T09:57:03;4.03;;;0.55;;
10605;SDS011;5350;42.698;23.148;2023-10-09T09:59:36;1.27;;;0.68;;
10605;SDS011;5350;42.698;23.148;2023-10-09T10:02:06;3.03;;;0.43;;
10605;SDS011;5350;42.698;23.148;2023-10-09T10:04:38;0.60;;;0.60;;
10605;SDS011;5350;42.698;23.148;2023-10-09T10:07:07;0.68;;;0.57;;
10605;SDS011;5350;42.698;23.148;2023-10-09T10:09:36;0.60;;;0.60;;
10605;SDS011;5350;42.698;23.148;2023-10-09T10:12:05;3.20;;;0.70;;
10605;SDS011;5350;42.698;23.148;2023-10-09T10:17:22;0.50;;;0.40;;
10605;SDS011;5350;42.698;23.148;2023-10-09T10:20:00;0.85;;;0.60;;
10605;SDS011;5350;42.698;23.148;2023-10-09T10:22:47;4.50;;;0.75;;
10605;SDS011;5350;42.698;23.148;2023-10-09T10:25:31;1.75;;;0.75;;
10605;SDS011;5350;42.698;23.148;2023-10-09T10:28:15;0.85;;;0.50;;
10605;SDS011;5350;42.698;23.148;2023-10-09T10:30:47;0.95;;;0.50;;
10605;SDS011;5350;42.698;23.148;2023-10-09T10:33:16;1.30;;;0.52;;
10605;SDS011;5350;42.698;23.148;2023-10-09T10:35:44;0.80;;;0.43;;
10605;SDS011;5350;42.698;23.148;2023-10-09T10:41:10;0.40;;;0.40;;
10605;SDS011;5350;42.698;23.148;2023-10-09T10:43:37;1.23;;;0.55;;
10605;SDS011;5350;42.698;23.148;2023-10-09T10:46:20;0.65;;;0.40;;
10605;SDS011;5350;42.698;23.148;2023-10-09T10:48:55;0.60;;;0.40;;
10605;SDS011;5350;42.698;23.148;2023-10-09T10:51:27;1.10;;;0.50;;
10605;SDS011;5350;42.698;23.148;2023-10-09T10:54:02;1.05;;;0.50;;
10605;SDS011;5350;42.698;23.148;2023-10-09T10:56:44;1.10;;;0.50;;
10605;SDS011;5350;42.698;23.148;2023-10-09T10:59:16;3.22;;;0.47;;
10605;SDS011;5350;42.698;23.148;2023-10-09T11:01:50;0.57;;;0.43;;
10605;SDS011;5350;42.698;23.148;2023-10-09T11:04:18;3.78;;;0.50;;
10605;SDS011;5350;42.698;23.148;2023-10-09T11:07:05;0.70;;;0.40;;
10605;SDS011;5350;42.698;23.148;2023-10-09T11:09:44;0.93;;;0.60;;
10605;SDS011;5350;42.698;23.148;2023-10-09T11:12:26;0.45;;;0.40;;
10605;SDS011;5350;42.698;23.148;2023-10-09T11:15:03;3.53;;;0.45;;
10605;SDS011;5350;42.698;23.148;2023-10-09T11:17:57;0.70;;;0.40;;
10605;SDS011;5350;42.698;23.148;2023-10-09T11:20:30;0.40;;;0.32;;
10605;SDS011;5350;42.698;23.148;2023-10-09T11:23:00;0.50;;;0.40;;
10605;SDS011;5350;42.698;23.148;2023-10-09T11:25:41;1.27;;;0.40;;
10605;SDS011;5350;42.698;23.148;2023-10-09T11:28:16;0.47;;;0.30;;
10605;SDS011;5350;42.698;23.148;2023-10-09T11:30:54;0.28;;;0.25;;
10605;SDS011;5350;42.698;23.148;2023-10-09T11:33:21;1.63;;;0.60;;
10605;SDS011;5350;42.698;23.148;2023-10-09T11:35:55;0.63;;;0.43;;
10605;SDS011;5350;42.698;23.148;2023-10-09T11:38:27;0.65;;;0.40;;
10605;SDS011;5350;42.698;23.148;2023-10-09T11:41:11;0.77;;;0.38;;
10605;SDS011;5350;42.698;23.148;2023-10-09T11:43:47;0.55;;;0.50;;
10605;SDS011;5350;42.698;23.148;2023-10-09T11:46:18;0.40;;;0.30;;
10605;SDS011;5350;42.698;23.148;2023-10-09T11:49:04;2.58;;;0.70;;
10605;SDS011;5350;42.698;23.148;2023-10-09T11:51:49;1.70;;;0.47;;
10605;SDS011;5350;42.698;23.148;2023-10-09T11:54:32;1.27;;;0.52;;
10605;SDS011;5350;42.698;23.148;2023-10-09T11:57:00;1.45;;;0.50;;
10605;SDS011;5350;42.698;23.148;2023-10-09T11:59:27;0.50;;;0.50;;
10605;SDS011;5350;42.698;23.148;2023-10-09T12:01:59;1.67;;;0.50;;
10605;SDS011;5350;42.698;23.148;2023-10-09T12:04:26;1.48;;;0.55;;
10605;SDS011;5350;42.698;23.148;2023-10-09T12:06:55;1.52;;;0.70;;
10605;SDS011;5350;42.698;23.148;2023-10-09T12:09:32;0.77;;;0.50;;
10605;SDS011;5350;42.698;23.148;2023-10-09T12:12:00;2.15;;;0.80;;
10605;SDS011;5350;42.698;23.148;2023-10-09T12:14:28;1.50;;;0.60;;
10605;SDS011;5350;42.698;23.148;2023-10-09T12:16:58;2.55;;;0.63;;
10605;SDS011;5350;42.698;23.148;2023-10-09T12:19:30;0.77;;;0.50;;
10605;SDS011;5350;42.698;23.148;2023-10-09T12:21:58;0.60;;;0.50;;
10605;SDS011;5350;42.698;23.148;2023-10-09T12:24:26;3.72;;;0.50;;
10605;SDS011;5350;42.698;23.148;2023-10-09T12:26:55;0.75;;;0.60;;
10605;SDS011;5350;42.698;23.148;2023-10-09T12:29:22;1.95;;;0.57;;
10605;SDS011;5350;42.698;23.148;2023-10-09T12:31:51;0.50;;;0.50;;
10605;SDS011;5350;42.698;23.148;2023-10-09T12:34:23;1.55;;;0.47;;
10605;SDS011;5350;42.698;23.148;2023-10-09T12:36:52;1.33;;;0.52;;
10605;SDS011;5350;42.698;23.148;2023-10-09T12:39:19;1.02;;;0.70;;
10605;SDS011;5350;42.698;23.148;2023-10-09T12:41:46;1.25;;;0.60;;
10605;SDS011;5350;42.698;23.148;2023-10-09T12:44:14;1.02;;;0.50;;
10605;SDS011;5350;42.698;23.148;2023-10-09T12:46:44;0.57;;;0.57;;
10605;SDS011;5350;42.698;23.148;2023-10-09T12:49:17;1.15;;;0.70;;
10605;SDS011;5350;42.698;23.148;2023-10-09T12:51:44;0.65;;;0.50;;
10605;SDS011;5350;42.698;23.148;2023-10-09T12:54:11;1.38;;;0.73;;
10605;SDS011;5350;42.698;23.148;2023-10-09T12:56:39;0.80;;;0.63;;
10605;SDS011;5350;42.698;23.148;2023-10-09T12:59:06;0.98;;;0.63;;
10605;SDS011;5350;42.698;23.148;2023-10-09T13:01:41;1.23;;;0.80;;
10605;SDS011;5350;42.698;23.148;2023-10-09T13:04:15;2.08;;;0.77;;
10605;SDS011;5350;42.698;23.148;2023-10-09T13:06:42;2.08;;;0.80;;
10605;SDS011;5350;42.698;23.148;2023-10-09T13:09:10;3.15;;;0.98;;
10605;SDS011;5350;42.698;23.148;2023-10-09T13:11:36;2.15;;;0.88;;
10605;SDS011;5350;42.698;23.148;2023-10-09T13:14:04;1.30;;;1.10;;
10605;SDS011;5350;42.698;23.148;2023-10-09T13:16:43;1.95;;;1.00;;
10605;SDS011;5350;42.698;23.148;2023-10-09T13:19:10;3.72;;;1.00;;
10605;SDS011;5350;42.698;23.148;2023-10-09T13:21:37;1.83;;;1.27;;
10605;SDS011;5350;42.698;23.148;2023-10-09T13:24:05;3.03;;;1.30;;
10605;SDS011;5350;42.698;23.148;2023-10-09T13:26:38;2.67;;;1.20;;
10605;SDS011;5350;42.698;23.148;2023-10-09T13:29:06;2.05;;;1.13;;
10605;SDS011;5350;42.698;23.148;2023-10-09T13:31:34;2.03;;;1.00;;
10605;SDS011;5350;42.698;23.148;2023-10-09T13:34:04;3.42;;;1.13;;
10605;SDS011;5350;42.698;23.148;2023-10-09T13:36:35;3.08;;;1.20;;
10605;SDS011;5350;42.698;23.148;2023-10-09T13:39:07;3.35;;;1.40;;
10605;SDS011;5350;42.698;23.148;2023-10-09T13:41:49;1.30;;;1.05;;
10605;SDS011;5350;42.698;23.148;2023-10-09T13:44:22;3.20;;;1.10;;
10605;SDS011;5350;42.698;23.148;2023-10-09T13:46:51;2.20;;;1.02;;
10605;SDS011;5350;42.698;23.148;2023-10-09T13:49:20;8.63;;;1.33;;
10605;SDS011;5350;42.698;23.148;2023-10-09T13:51:48;1.60;;;1.13;;
10605;SDS011;5350;42.698;23.148;2023-10-09T13:54:15;2.28;;;1.23;;
10605;SDS011;5350;42.698;23.148;2023-10-09T13:56:46;1.50;;;1.40;;
10605;SDS011;5350;42.698;23.148;2023-10-09T13:59:17;13.00;;;1.85;;
10605;SDS011;5350;42.698;23.148;2023-10-09T14:01:46;3.28;;;1.40;;
10605;SDS011;5350;42.698;23.148;2023-10-09T14:04:13;2.90;;;1.33;;
10605;SDS011;5350;42.698;23.148;2023-10-09T14:06:44;6.75;;;1.25;;
10605;SDS011;5350;42.698;23.148;2023-10-09T14:09:12;3.70;;;1.50;;
10605;SDS011;5350;42.698;23.148;2023-10-09T14:11:54;2.65;;;1.50;;
10605;SDS011;5350;42.698;23.148;2023-10-09T14:14:31;1.52;;;1.35;;
10605;SDS011;5350;42.698;23.148;2023-10-09T14:16:59;2.03;;;1.40;;
10605;SDS011;5350;42.698;23.148;2023-10-09T14:19:26;2.97;;;1.10;;
10605;SDS011;5350;42.698;23.148;2023-10-09T14:21:59;4.97;;;1.50;;
10605;SDS011;5350;42.698;23.148;2023-10-09T14:24:30;2.55;;;1.20;;
10605;SDS011;5350;42.698;23.148;2023-10-09T14:26:58;7.22;;;1.80;;
10605;SDS011;5350;42.698;23.148;2023-10-09T14:29:28;5.10;;;1.30;;
10605;SDS011;5350;42.698;23.148;2023-10-09T14:32:08;1.52;;;1.40;;
10605;SDS011;5350;42.698;23.148;2023-10-09T14:34:38;2.95;;;1.30;;
10605;SDS011;5350;42.698;23.148;2023-10-09T14:37:09;2.47;;;1.52;;
10605;SDS011;5350;42.698;23.148;2023-10-09T14:39:37;3.50;;;1.40;;
10605;SDS011;5350;42.698;23.148;2023-10-09T14:42:04;2.38;;;1.35;;
10605;SDS011;5350;42.698;23.148;2023-10-09T14:44:34;4.18;;;1.88;;
10605;SDS011;5350;42.698;23.148;2023-10-09T14:47:02;5.97;;;1.77;;
10605;SDS011;5350;42.698;23.148;2023-10-09T14:49:30;5.75;;;1.60;;
10605;SDS011;5350;42.698;23.148;2023-10-09T14:52:00;3.17;;;1.60;;
10605;SDS011;5350;42.698;23.148;2023-10-09T14:54:28;3.00;;;1.60;;
10605;SDS011;5350;42.698;23.148;2023-10-09T14:56:55;3.13;;;1.90;;
10605;SDS011;5350;42.698;23.148;2023-10-09T14:59:21;2.05;;;1.40;;
10605;SDS011;5350;42.698;23.148;2023-10-09T15:01:48;5.10;;;1.70;;
10605;SDS011;5350;42.698;23.148;2023-10-09T15:04:15;3.83;;;1.40;;
10605;SDS011;5350;42.698;23.148;2023-10-09T15:06:42;6.55;;;1.75;;
10605;SDS011;5350;42.698;23.148;2023-10-09T15:09:09;2.55;;;1.65;;
10605;SDS011;5350;42.698;23.148;2023-10-09T15:11:48;5.53;;;1.65;;
10605;SDS011;5350;42.698;23.148;2023-10-09T15:14:15;8.45;;;1.30;;
10605;SDS011;5350;42.698;23.148;2023-10-09T15:16:43;4.97;;;1.67;;
10605;SDS011;5350;42.698;23.148;2023-10-09T15:19:11;3.85;;;1.73;;
10605;SDS011;5350;42.698;23.148;2023-10-09T15:21:38;1.88;;;1.52;;
10605;SDS011;5350;42.698;23.148;2023-10-09T15:24:09;3.17;;;2.05;;
10605;SDS011;5350;42.698;23.148;2023-10-09T15:26:40;8.40;;;4.60;;
10605;SDS011;5350;42.698;23.148;2023-10-09T15:29:08;7.75;;;5.07;;
10605;SDS011;5350;42.698;23.148;2023-10-09T15:31:35;11.23;;;7.38;;